Bay City, Texas
Current Conditions -  °F | °C
As of 2:53 PM on Tuesday 25 Nov 2014 (Local Time) from KPSX Reporting Station
Clear Clear  
Wind Chill: 67°   Ceiling: Unl
Heat Index: 67°   Visibility: 10mi
Dew Point: 28°   Wind: 6mph
Humidity: 23%   Direction: 340°NNW
Pressure: 30.25"   Gusts: NA
Location:  28.98°N, 95.97°W
Report Text: KPSX 252053Z AUTO 34005KT 10SM CLR 19/M02 A3025 RMK AO2 SLP243 T01941022 56019
Loading
Personal Weather Stations






























Interactive Weather Map New forecast layout! Learn more

10-Day Weather Forecast

Advertisements
Track Severe Weather on mobile